KMWK

Mount Airy/Surry County Airport

Mount Airy, North Carolina, USA
METAR KMWK 180225Z AUTO 00000KT 10SM OVC040 07/01 A3019 RMK AO2 T00650007
Observed Flight Rules
Dec-18 @ 02:25 UTC (31 minutes ago) Visual Flight Rules
Wind Visibility Clouds
Calm 10 miles
  • Overcast at 4,000' AGL
Temperatures Readings
Current 7°C / 45°F
Dewpoint 1°C / 34°F
Humidity 66%
Altimeter 30.19" Hg
Pressure 1022 hPa
Elevation 380
METAR KMWK 180225Z AUTO 00000KT 10SM OVC040 07/01 A3019 RMK AO2 T00650007
Observed Flight Rules
Dec-18 @ 02:25 UTC
(31 minutes ago)
VFR
Wind Visibility
Calm 10 miles
Clouds
  • Overcast at 4,000' AGL
Temperature Dewpoint
7°C / 45°F 1°C / 34°F
Humidity Altimeter Pressure
66% 30.19" Hg 1022 hPa